createdAt,value
2023-03-19T00:01:05.856Z,101474.75
2023-03-19T00:03:07.422Z,101481.38
2023-03-19T00:05:10.480Z,101477.31
2023-03-19T00:07:12.520Z,101476.00
2023-03-19T00:09:14.379Z,101478.03
2023-03-19T00:11:17.461Z,101478.41
2023-03-19T00:13:20.462Z,101478.56
2023-03-19T00:15:22.144Z,101474.19
2023-03-19T00:17:26.562Z,101479.78
2023-03-19T00:19:28.622Z,101478.06
2023-03-19T00:21:30.779Z,101476.41
2023-03-19T00:23:32.382Z,101478.28
2023-03-19T00:25:34.384Z,101481.34
2023-03-19T00:27:38.269Z,101481.50
2023-03-19T00:29:40.167Z,101482.72
2023-03-19T00:31:43.289Z,101483.88
2023-03-19T00:33:45.111Z,101482.34
2023-03-19T00:35:47.187Z,101479.81
2023-03-19T00:37:49.081Z,101473.88
2023-03-19T00:39:50.723Z,101475.09
2023-03-19T00:41:52.291Z,101480.88
2023-03-19T00:43:56.941Z,101478.53
2023-03-19T00:45:59.076Z,101474.28
2023-03-19T00:48:00.797Z,101480.06
2023-03-19T00:50:02.574Z,101472.28
2023-03-19T00:52:04.693Z,101476.19
2023-03-19T00:54:06.778Z,101477.38
2023-03-19T00:56:08.701Z,101468.56
2023-03-19T00:58:10.644Z,101475.19
2023-03-19T01:02:16.633Z,101470.66
2023-03-19T01:04:19.478Z,101469.09
2023-03-19T01:06:21.302Z,101466.75
2023-03-19T01:08:23.147Z,101461.69
2023-03-19T01:10:25.153Z,101463.06
2023-03-19T01:12:27.096Z,101460.84
2023-03-19T01:14:29.203Z,101456.78
2023-03-19T01:16:32.609Z,101460.72
2023-03-19T01:18:34.736Z,101456.50
2023-03-19T01:20:38.036Z,101461.41
2023-03-19T01:22:41.635Z,101455.31
2023-03-19T01:24:43.660Z,101452.09
2023-03-19T01:26:45.701Z,101459.56
2023-03-19T01:28:47.885Z,101449.88
2023-03-19T01:30:49.856Z,101462.94
2023-03-19T01:32:53.495Z,101461.41
2023-03-19T01:34:55.322Z,101463.47
2023-03-19T01:36:57.404Z,101463.78
2023-03-19T01:39:01.368Z,101467.53
2023-03-19T01:41:04.323Z,101474.78
2023-03-19T01:43:16.670Z,101464.97
2023-03-19T01:45:35.081Z,101476.00
2023-03-19T01:47:41.225Z,101476.31
2023-03-19T01:49:47.394Z,101474.63
2023-03-19T01:51:49.289Z,101472.94
2023-03-19T01:53:55.327Z,101470.59
2023-03-19T01:56:02.620Z,101472.44
2023-03-19T01:58:06.694Z,101474.28
2023-03-19T02:00:10.326Z,101469.03
2023-03-19T02:02:21.747Z,101471.75
2023-03-19T02:04:26.867Z,101475.66
2023-03-19T02:06:31.157Z,101469.56
2023-03-19T02:08:34.204Z,101474.28
2023-03-19T02:10:37.311Z,101464.47
2023-03-19T02:12:39.526Z,101477.34
2023-03-19T02:14:42.258Z,101465.84
2023-03-19T02:16:44.669Z,101474.13
2023-03-19T02:18:47.511Z,101468.03
2023-03-19T02:20:54.952Z,101477.31
2023-03-19T02:23:05.555Z,101482.75
2023-03-19T02:25:13.320Z,101479.38
2023-03-19T02:27:16.525Z,101477.00
2023-03-19T02:29:18.350Z,101484.44
2023-03-19T02:31:20.644Z,101478.34
2023-03-19T02:33:22.512Z,101481.22
2023-03-19T02:35:24.826Z,101482.22
2023-03-19T02:37:31.206Z,101490.50
2023-03-19T02:39:43.997Z,101485.09
2023-03-19T02:41:46.959Z,101488.97
2023-03-19T02:43:50.595Z,101484.75
2023-03-19T02:45:52.472Z,101486.78
2023-03-19T02:47:54.496Z,101487.78
2023-03-19T02:49:58.536Z,101480.88
2023-03-19T02:52:00.271Z,101475.78
2023-03-19T02:54:01.856Z,101475.25
2023-03-19T02:56:04.259Z,101481.84
2023-03-19T02:58:07.418Z,101482.19
2023-03-19T03:00:13.064Z,101478.78
2023-03-19T03:02:15.057Z,101476.41
2023-03-19T03:04:16.781Z,101477.59
2023-03-19T03:06:18.422Z,101489.44
2023-03-19T03:08:20.204Z,101477.09
2023-03-19T03:10:22.354Z,101484.50
2023-03-19T03:12:24.373Z,101474.88
2023-03-19T03:14:26.734Z,101485.03
2023-03-19T03:16:32.430Z,101479.94
2023-03-19T03:18:35.547Z,101486.69
2023-03-19T03:20:37.514Z,101482.28
2023-03-19T03:22:41.309Z,101485.16
2023-03-19T03:24:45.819Z,101481.59
2023-03-19T03:26:47.493Z,101492.59
2023-03-19T03:28:49.570Z,101484.47
2023-03-19T03:30:51.258Z,101484.47
2023-03-19T03:32:54.305Z,101490.03
2023-03-19T03:35:00.794Z,101484.63
2023-03-19T03:37:04.025Z,101489.38
2023-03-19T03:39:06.055Z,101490.38
2023-03-19T03:41:08.679Z,101484.09
2023-03-19T03:43:10.673Z,101487.81
2023-03-19T03:45:14.040Z,101492.41
2023-03-19T03:47:16.106Z,101483.59
2023-03-19T03:49:19.283Z,101491.03
2023-03-19T03:51:21.061Z,101487.47
2023-03-19T03:53:22.670Z,101490.34
2023-03-19T03:55:24.328Z,101500.28
2023-03-19T03:57:26.587Z,101487.81
2023-03-19T03:59:31.417Z,101494.06
2023-03-19T04:01:33.576Z,101481.56
2023-03-19T04:03:35.281Z,101491.38
2023-03-19T04:05:38.311Z,101492.38
2023-03-19T04:07:39.871Z,101477.31
2023-03-19T04:09:42.048Z,101488.09
2023-03-19T04:11:44.108Z,101491.00
2023-03-19T04:13:45.772Z,101490.28
2023-03-19T04:15:48.415Z,101494.03
2023-03-19T04:17:51.090Z,101492.31
2023-03-19T04:19:53.124Z,101491.47
2023-03-19T04:21:56.200Z,101487.91
2023-03-19T04:23:59.223Z,101494.16
2023-03-19T04:26:02.242Z,101499.56
2023-03-19T04:28:04.155Z,101488.78
2023-03-19T04:30:06.430Z,101493.31
2023-03-19T04:32:08.588Z,101491.47
2023-03-19T04:34:10.410Z,101486.06
2023-03-19T04:36:13.026Z,101487.78
2023-03-19T04:38:16.774Z,101481.38
2023-03-19T04:40:18.428Z,101490.28
2023-03-19T04:42:20.313Z,101489.13
2023-03-19T04:44:21.980Z,101492.69
2023-03-19T04:46:24.022Z,101496.22
2023-03-19T04:48:26.198Z,101502.31
2023-03-19T04:50:28.779Z,101504.03
2023-03-19T04:52:30.629Z,101507.41
2023-03-19T04:54:34.289Z,101503.69
2023-03-19T04:56:35.848Z,101502.69
2023-03-19T04:58:38.768Z,101500.81
2023-03-19T05:00:41.966Z,101500.66
2023-03-19T05:02:43.811Z,101493.41
2023-03-19T05:04:45.350Z,101496.78
2023-03-19T05:06:46.934Z,101499.31
2023-03-19T05:08:48.742Z,101498.31
2023-03-19T05:10:53.575Z,101489.88
2023-03-19T05:12:55.348Z,101496.81
2023-03-19T05:14:57.292Z,101493.78
2023-03-19T05:16:59.549Z,101497.19
2023-03-19T05:19:01.838Z,101501.41
2023-03-19T05:21:03.697Z,101499.41
2023-03-19T05:23:05.945Z,101497.34
2023-03-19T05:25:08.111Z,101491.63
2023-03-19T05:27:11.593Z,101496.88
2023-03-19T05:29:13.201Z,101498.38
2023-03-19T05:31:14.943Z,101499.09
2023-03-19T05:33:17.143Z,101500.59
2023-03-19T05:35:18.959Z,101505.69
2023-03-19T05:37:20.905Z,101509.06
2023-03-19T05:39:22.713Z,101513.31
2023-03-19T05:41:24.302Z,101508.56
2023-03-19T05:43:29.616Z,101509.94
2023-03-19T05:45:31.433Z,101514.16
2023-03-19T05:47:33.334Z,101516.34
2023-03-19T05:49:37.436Z,101519.56
2023-03-19T05:51:39.455Z,101514.69
2023-03-19T05:53:41.079Z,101518.75
2023-03-19T05:55:43.219Z,101520.09
2023-03-19T05:57:45.628Z,101522.31
2023-03-19T05:59:48.617Z,101521.81
2023-03-19T06:01:50.345Z,101520.47
2023-03-19T06:03:52.227Z,101523.50
2023-03-19T06:05:53.834Z,101523.84
2023-03-19T06:07:55.962Z,101515.56
2023-03-19T06:09:57.943Z,101512.19
2023-03-19T06:12:00.312Z,101517.09
2023-03-19T06:14:02.678Z,101516.56
2023-03-19T06:16:07.261Z,101513.38
2023-03-19T06:18:09.115Z,101514.56
2023-03-19T06:20:11.936Z,101514.03
2023-03-19T06:22:13.792Z,101509.97
2023-03-19T06:24:15.470Z,101509.28
2023-03-19T06:26:17.096Z,101501.66
2023-03-19T06:28:18.945Z,101509.25
2023-03-19T06:30:20.976Z,101506.03
2023-03-19T06:32:24.454Z,101495.53
2023-03-19T06:34:26.136Z,101496.69
2023-03-19T06:36:27.729Z,101498.91
2023-03-19T06:38:29.795Z,101500.09
2023-03-19T06:40:31.696Z,101499.53
2023-03-19T06:42:34.805Z,101497.31
2023-03-19T06:44:36.773Z,101495.94
2023-03-19T06:46:43.191Z,101499.34
2023-03-19T06:48:46.332Z,101495.44
2023-03-19T06:50:51.772Z,101499.84
2023-03-19T06:52:53.348Z,101500.50
2023-03-19T06:54:55.178Z,101503.91
2023-03-19T06:56:57.537Z,101500.16
2023-03-19T06:58:59.149Z,101491.19
2023-03-19T07:01:01.133Z,101492.88
2023-03-19T07:03:06.067Z,101506.41
2023-03-19T07:05:12.398Z,101511.69
2023-03-19T07:07:14.284Z,101507.97
2023-03-19T07:09:15.932Z,101514.22
2023-03-19T07:11:17.540Z,101517.44
2023-03-19T07:13:19.411Z,101524.41
2023-03-19T07:15:21.033Z,101523.03
2023-03-19T07:17:23.160Z,101519.78
2023-03-19T07:19:24.701Z,101523.00
2023-03-19T07:21:27.790Z,101529.72
2023-03-19T07:23:31.831Z,101529.22
2023-03-19T07:25:34.002Z,101523.25
2023-03-19T07:27:37.084Z,101523.59
2023-03-19T07:29:38.862Z,101514.88
2023-03-19T07:31:40.949Z,101519.78
2023-03-19T07:33:42.889Z,101521.97
2023-03-19T07:35:44.540Z,101527.88
2023-03-19T07:37:47.570Z,101527.16
2023-03-19T07:39:49.349Z,101537.50
2023-03-19T07:41:50.905Z,101538.66
2023-03-19T07:43:52.704Z,101537.09
2023-03-19T07:45:54.348Z,101533.84
2023-03-19T07:47:56.063Z,101539.59
2023-03-19T07:49:57.880Z,101530.03
2023-03-19T07:51:59.701Z,101532.41
2023-03-19T07:54:02.968Z,101533.38
2023-03-19T07:56:05.471Z,101528.22
2023-03-19T07:58:07.130Z,101529.38
2023-03-19T08:00:10.065Z,101525.28
2023-03-19T08:02:13.431Z,101519.09
2023-03-19T08:04:15.881Z,101513.97
2023-03-19T08:06:19.084Z,101519.88
2023-03-19T08:08:21.339Z,101517.66
2023-03-19T08:10:24.256Z,101516.25
2023-03-19T08:12:26.059Z,101512.13
2023-03-19T08:14:27.983Z,101518.91
2023-03-19T08:16:29.641Z,101516.44
2023-03-19T08:18:31.279Z,101523.03
2023-03-19T08:20:34.928Z,101520.41
2023-03-19T08:22:38.724Z,101532.41
2023-03-19T08:24:40.801Z,101533.34
2023-03-19T08:26:44.177Z,101526.34
2023-03-19T08:28:46.052Z,101521.00
2023-03-19T08:30:47.797Z,101523.66
2023-03-19T08:32:49.639Z,101529.19
2023-03-19T08:34:51.240Z,101522.16
2023-03-19T08:36:53.965Z,101525.81
2023-03-19T08:38:55.756Z,101523.16
2023-03-19T08:40:57.577Z,101525.78
2023-03-19T08:43:00.795Z,101523.16
2023-03-19T08:45:02.890Z,101522.38
2023-03-19T08:47:04.850Z,101523.31
2023-03-19T08:49:06.682Z,101515.25
2023-03-19T08:51:08.561Z,101510.03
2023-03-19T08:53:12.312Z,101517.47
2023-03-19T08:55:15.481Z,101519.41
2023-03-19T08:57:17.328Z,101521.34
2023-03-19T08:59:20.529Z,101523.94
2023-03-19T09:01:22.620Z,101526.72
2023-03-19T09:03:25.401Z,101520.31
2023-03-19T09:05:29.652Z,101523.97
2023-03-19T09:07:31.285Z,101517.53
2023-03-19T09:09:33.185Z,101520.97
2023-03-19T09:11:34.858Z,101513.50
2023-03-19T09:13:37.210Z,101521.53
2023-03-19T09:15:40.220Z,101518.31
2023-03-19T09:17:41.903Z,101516.31
2023-03-19T09:19:43.490Z,101512.19
2023-03-19T09:21:45.347Z,101522.75
2023-03-19T09:23:47.172Z,101513.38
2023-03-19T09:25:49.261Z,101515.91
2023-03-19T09:27:51.651Z,101518.28
2023-03-19T09:29:53.438Z,101515.00
2023-03-19T09:31:56.422Z,101519.66
2023-03-19T09:33:58.169Z,101516.75
2023-03-19T09:35:59.822Z,101520.00
2023-03-19T09:38:02.058Z,101520.28
2023-03-19T09:40:05.635Z,101516.50
2023-03-19T09:42:24.444Z,101516.75
2023-03-19T09:44:29.469Z,101520.75
2023-03-19T09:46:40.888Z,101517.16
2023-03-19T09:48:49.716Z,101521.34
2023-03-19T09:50:51.554Z,101516.88
2023-03-19T09:53:00.507Z,101518.31
2023-03-19T09:55:11.815Z,101522.66
2023-03-19T09:57:15.210Z,101530.59
2023-03-19T09:59:17.048Z,101527.56
2023-03-19T10:01:25.977Z,101522.84
2023-03-19T10:03:44.913Z,101528.03
2023-03-19T10:05:56.812Z,101520.75
2023-03-19T10:08:21.672Z,101522.59
2023-03-19T10:10:42.199Z,101521.63
2023-03-19T10:12:55.374Z,101521.53
2023-03-19T10:15:19.101Z,101520.72
2023-03-19T10:17:27.688Z,101525.25
2023-03-19T10:19:40.900Z,101523.38
2023-03-19T10:21:51.027Z,101523.84
2023-03-19T10:23:57.312Z,101520.13
2023-03-19T10:26:00.212Z,101517.44
2023-03-19T10:28:11.993Z,101522.75
2023-03-19T10:30:16.304Z,101526.41
2023-03-19T10:32:19.523Z,101516.50
2023-03-19T10:34:28.860Z,101516.56
2023-03-19T10:36:34.890Z,101515.63
2023-03-19T10:38:43.515Z,101519.13
2023-03-19T10:40:56.249Z,101523.91
2023-03-19T10:43:06.854Z,101521.53
2023-03-19T10:45:18.747Z,101511.72
2023-03-19T10:47:26.243Z,101522.63
2023-03-19T10:49:28.330Z,101518.59
2023-03-19T10:51:31.152Z,101520.66
2023-03-19T10:53:35.455Z,101517.44
2023-03-19T10:55:39.193Z,101515.88
2023-03-19T10:57:43.040Z,101524.50
2023-03-19T10:59:45.979Z,101524.03
2023-03-19T11:01:47.627Z,101525.22
2023-03-19T11:03:52.750Z,101514.09
2023-03-19T11:06:04.774Z,101524.78
2023-03-19T11:08:34.545Z,101519.97
2023-03-19T11:10:47.282Z,101518.28
2023-03-19T11:12:54.781Z,101523.94
2023-03-19T11:15:00.115Z,101515.97
2023-03-19T11:17:07.220Z,101511.44
2023-03-19T11:19:23.336Z,101508.03
2023-03-19T11:21:29.726Z,101507.84
2023-03-19T11:23:39.526Z,101511.56
2023-03-19T11:25:47.919Z,101511.13
2023-03-19T11:27:59.423Z,101519.53
2023-03-19T11:30:01.997Z,101518.28
2023-03-19T11:32:21.716Z,101516.19
2023-03-19T11:34:33.942Z,101512.41
2023-03-19T11:36:46.269Z,101511.09
2023-03-19T11:38:58.270Z,101511.09
2023-03-19T11:41:14.643Z,101503.63
2023-03-19T11:43:36.342Z,101505.06
2023-03-19T11:45:46.774Z,101515.03
2023-03-19T11:48:01.131Z,101514.75
2023-03-19T11:50:14.623Z,101504.56
2023-03-19T11:52:23.685Z,101513.16
2023-03-19T11:54:35.373Z,101506.28
2023-03-19T11:56:44.910Z,101499.94
2023-03-19T11:59:12.023Z,101491.63
2023-03-19T12:01:28.463Z,101488.22
2023-03-19T12:03:58.821Z,101486.19
2023-03-19T12:06:04.560Z,101488.41
2023-03-19T12:08:19.389Z,101483.81
2023-03-19T12:10:39.497Z,101482.19
2023-03-19T12:12:48.998Z,101486.06
2023-03-19T12:15:04.606Z,101480.53
2023-03-19T12:17:23.996Z,101485.47
2023-03-19T12:19:47.929Z,101478.28
2023-03-19T12:22:04.934Z,101472.53
2023-03-19T12:24:18.735Z,101465.19
2023-03-19T12:26:29.680Z,101472.41
2023-03-19T12:28:38.971Z,101469.19
2023-03-19T12:30:45.221Z,101460.72
2023-03-19T12:33:02.948Z,101469.41
2023-03-19T12:35:11.825Z,101464.00
2023-03-19T12:37:19.986Z,101459.66
2023-03-19T12:39:29.771Z,101459.72
2023-03-19T12:41:37.317Z,101461.47
2023-03-19T12:43:48.488Z,101450.50
2023-03-19T12:45:58.259Z,101453.34
2023-03-19T12:48:06.164Z,101455.94
2023-03-19T12:50:12.087Z,101450.75
2023-03-19T12:52:21.827Z,101451.91
2023-03-19T12:54:27.573Z,101447.22
2023-03-19T12:56:39.206Z,101448.41
2023-03-19T12:58:53.597Z,101438.75
2023-03-19T13:01:01.422Z,101441.25
2023-03-19T13:03:10.438Z,101442.97
2023-03-19T13:05:20.390Z,101441.34
2023-03-19T13:07:27.029Z,101436.38
2023-03-19T13:09:33.524Z,101439.16
2023-03-19T13:11:46.433Z,101439.25
2023-03-19T13:13:56.064Z,101444.00
2023-03-19T13:16:04.958Z,101447.06
2023-03-19T13:18:21.715Z,101435.97
2023-03-19T13:20:31.959Z,101430.41
2023-03-19T13:22:38.399Z,101434.88
2023-03-19T13:24:42.908Z,101434.59
2023-03-19T13:26:46.009Z,101436.53
2023-03-19T13:29:00.747Z,101426.00
2023-03-19T13:31:08.219Z,101428.25
2023-03-19T13:33:21.517Z,101422.41
2023-03-19T13:35:37.310Z,101421.59
2023-03-19T13:37:43.153Z,101431.88
2023-03-19T13:39:46.857Z,101422.69
2023-03-19T13:41:52.007Z,101422.16
2023-03-19T13:43:55.775Z,101416.28
2023-03-19T13:46:21.728Z,101419.66
2023-03-19T13:48:38.270Z,101417.16
2023-03-19T13:50:54.452Z,101411.28
2023-03-19T13:53:37.596Z,101415.75
2023-03-19T13:55:51.507Z,101413.25
2023-03-19T13:57:55.116Z,101412.69
2023-03-19T14:00:16.278Z,101413.78
2023-03-19T14:02:52.506Z,101415.75
2023-03-19T14:05:00.267Z,101414.63
2023-03-19T14:07:14.514Z,101409.09
2023-03-19T14:09:33.998Z,101406.88
2023-03-19T14:11:38.247Z,101409.94
2023-03-19T14:13:43.139Z,101415.75
2023-03-19T14:15:54.739Z,101409.66
2023-03-19T14:18:01.578Z,101412.69
2023-03-19T14:20:31.460Z,101409.38
2023-03-19T14:22:40.517Z,101406.31
2023-03-19T14:24:57.062Z,101404.06
2023-03-19T14:27:03.279Z,101400.47
2023-03-19T14:29:06.603Z,101402.13
2023-03-19T14:31:21.738Z,101403.81
2023-03-19T14:33:29.472Z,101406.84
2023-03-19T14:35:36.325Z,101399.34
2023-03-19T14:37:46.577Z,101403.78
2023-03-19T14:39:54.263Z,101403.50
2023-03-19T14:42:03.080Z,101409.31
2023-03-19T14:44:34.060Z,101401.50
2023-03-19T14:46:56.391Z,101404.53
2023-03-19T14:49:26.829Z,101404.84
2023-03-19T14:51:49.301Z,101402.06
2023-03-19T14:53:55.623Z,101398.13
2023-03-19T14:56:10.158Z,101395.91
2023-03-19T14:58:13.221Z,101400.13
2023-03-19T15:00:18.814Z,101397.59
2023-03-19T15:02:33.883Z,101397.59
2023-03-19T15:04:35.884Z,101397.31
2023-03-19T15:06:40.085Z,101402.00
2023-03-19T15:08:42.647Z,101394.50
2023-03-19T15:10:58.946Z,101397.53
2023-03-19T15:13:28.981Z,101393.91
2023-03-19T15:15:50.617Z,101393.59
2023-03-19T15:18:03.926Z,101395.78
2023-03-19T15:20:18.622Z,101397.13
2023-03-19T15:22:22.399Z,101395.16
2023-03-19T15:24:24.367Z,101393.47
2023-03-19T15:26:30.984Z,101388.97
2023-03-19T15:28:45.970Z,101388.13
2023-03-19T15:31:03.419Z,101388.91
2023-03-19T15:33:36.868Z,101382.75
2023-03-19T15:35:41.805Z,101381.59
2023-03-19T15:37:49.655Z,101375.44
2023-03-19T15:39:54.636Z,101380.97
2023-03-19T15:41:57.282Z,101378.69
2023-03-19T15:43:59.846Z,101380.31
2023-03-19T15:46:02.830Z,101382.50
2023-03-19T15:48:09.837Z,101383.53
2023-03-19T15:50:19.143Z,101392.06
2023-03-19T15:52:21.342Z,101392.28
2023-03-19T15:54:23.697Z,101388.06
2023-03-19T15:56:25.965Z,101391.28
2023-03-19T15:58:30.743Z,101396.78
2023-03-19T16:00:33.469Z,101394.50
2023-03-19T16:02:36.880Z,101393.88
2023-03-19T16:05:06.761Z,101399.34
2023-03-19T16:07:02.914Z,101401.47
2023-03-19T16:09:19.382Z,101404.19
2023-03-19T16:11:35.943Z,101407.44
2023-03-19T16:13:46.324Z,101412.28
2023-03-19T16:15:53.666Z,101408.06
2023-03-19T16:18:09.884Z,101417.38
2023-03-19T16:20:14.658Z,101406.78
2023-03-19T16:22:22.090Z,101414.16
2023-03-19T16:24:27.521Z,101420.69
2023-03-19T16:26:37.221Z,101421.97
2023-03-19T16:28:45.151Z,101422.16
2023-03-19T16:30:48.779Z,101427.03
2023-03-19T16:33:09.039Z,101423.38
2023-03-19T16:35:15.806Z,101429.06
2023-03-19T16:37:34.855Z,101441.13
2023-03-19T16:39:37.337Z,101436.88
2023-03-19T16:41:43.861Z,101450.63
2023-03-19T16:43:46.951Z,101444.16
2023-03-19T16:46:04.847Z,101444.91
2023-03-19T16:48:08.474Z,101450.84
2023-03-19T16:50:13.238Z,101450.13
2023-03-19T16:52:19.773Z,101444.56
2023-03-19T16:54:23.019Z,101449.97
2023-03-19T16:56:24.857Z,101451.22
2023-03-19T16:58:29.990Z,101458.59
2023-03-19T17:00:33.279Z,101454.31
2023-03-19T17:02:35.001Z,101461.63
2023-03-19T17:04:36.851Z,101454.59
2023-03-19T17:06:38.592Z,101453.69
2023-03-19T17:08:40.781Z,101462.34
2023-03-19T17:10:48.100Z,101458.63
2023-03-19T17:12:52.286Z,101465.97
2023-03-19T17:14:54.116Z,101468.88
2023-03-19T17:16:58.859Z,101472.59
2023-03-19T17:19:00.655Z,101469.75
2023-03-19T17:21:06.878Z,101478.94
2023-03-19T17:23:10.696Z,101479.94
2023-03-19T17:25:13.633Z,101486.44
2023-03-19T17:27:16.534Z,101493.50
2023-03-19T17:29:21.568Z,101502.72
2023-03-19T17:31:26.017Z,101509.19
2023-03-19T17:33:29.864Z,101508.25
2023-03-19T17:35:33.148Z,101517.22
2023-03-19T17:37:35.014Z,101506.56
2023-03-19T17:39:36.657Z,101518.56
2023-03-19T17:41:38.278Z,101518.28
2023-03-19T17:43:44.468Z,101513.97
2023-03-19T17:45:49.316Z,101522.59
2023-03-19T17:47:54.004Z,101527.59
2023-03-19T17:49:57.163Z,101525.38
2023-03-19T17:51:59.271Z,101521.31
2023-03-19T17:54:00.888Z,101524.38
2023-03-19T17:56:02.922Z,101526.63
2023-03-19T17:58:04.623Z,101525.88
2023-03-19T18:00:10.699Z,101530.63
2023-03-19T18:02:27.950Z,101530.72
2023-03-19T18:04:29.743Z,101529.41
2023-03-19T18:06:35.244Z,101536.88
2023-03-19T18:08:37.059Z,101536.38
2023-03-19T18:10:41.005Z,101535.81
2023-03-19T18:12:43.502Z,101527.88
2023-03-19T18:14:45.380Z,101533.66
2023-03-19T18:16:51.106Z,101532.88
2023-03-19T18:18:55.600Z,101538.25
2023-03-19T18:20:59.512Z,101540.00
2023-03-19T18:23:03.159Z,101540.66
2023-03-19T18:25:06.029Z,101549.59
2023-03-19T18:27:08.240Z,101543.94
2023-03-19T18:29:09.855Z,101536.16
2023-03-19T18:31:16.019Z,101533.88
2023-03-19T18:33:25.848Z,101536.25
2023-03-19T18:35:30.185Z,101542.41
2023-03-19T18:37:34.549Z,101544.97
2023-03-19T18:39:36.163Z,101542.69
2023-03-19T18:41:37.775Z,101540.63
2023-03-19T18:43:39.749Z,101541.06
2023-03-19T18:45:42.383Z,101550.22
2023-03-19T18:47:46.316Z,101546.84
2023-03-19T18:49:49.321Z,101550.28
2023-03-19T18:52:02.048Z,101551.16
2023-03-19T18:54:04.502Z,101550.75
2023-03-19T18:56:20.211Z,101552.50
2023-03-19T18:58:24.713Z,101546.63
2023-03-19T19:00:29.774Z,101544.31
2023-03-19T19:02:34.216Z,101552.78
2023-03-19T19:04:35.818Z,101546.03
2023-03-19T19:06:47.201Z,101547.34
2023-03-19T19:08:49.799Z,101550.72
2023-03-19T19:10:54.138Z,101545.66
2023-03-19T19:12:56.612Z,101548.03
2023-03-19T19:14:59.206Z,101545.69
2023-03-19T19:17:01.082Z,101553.53
2023-03-19T19:19:03.515Z,101547.63
2023-03-19T19:21:05.540Z,101542.84
2023-03-19T19:23:09.777Z,101546.00
2023-03-19T19:25:15.899Z,101538.22
2023-03-19T19:27:20.451Z,101536.13
2023-03-19T19:29:24.791Z,101543.94
2023-03-19T19:31:29.007Z,101544.19
2023-03-19T19:33:34.641Z,101541.66
2023-03-19T19:35:36.468Z,101549.28
2023-03-19T19:37:38.288Z,101546.97
2023-03-19T19:39:41.390Z,101543.00
2023-03-19T19:41:43.510Z,101546.97
2023-03-19T19:43:46.427Z,101552.31
2023-03-19T19:45:50.126Z,101555.47
2023-03-19T19:47:52.220Z,101547.47
2023-03-19T19:49:53.983Z,101547.06
2023-03-19T19:51:56.143Z,101547.50
2023-03-19T19:53:57.748Z,101550.88
2023-03-19T19:56:06.713Z,101554.50
2023-03-19T19:58:18.228Z,101550.50
2023-03-19T20:00:23.111Z,101555.78
2023-03-19T20:02:27.189Z,101548.84
2023-03-19T20:04:30.580Z,101554.53
2023-03-19T20:06:32.286Z,101559.41
2023-03-19T20:08:34.292Z,101560.44
2023-03-19T20:10:37.852Z,101564.47
2023-03-19T20:12:49.218Z,101562.78
2023-03-19T20:14:52.350Z,101559.63
2023-03-19T20:16:54.456Z,101563.41
2023-03-19T20:18:58.392Z,101563.84
2023-03-19T20:21:02.038Z,101570.59
2023-03-19T20:23:03.710Z,101568.06
2023-03-19T20:25:07.265Z,101564.72
2023-03-19T20:27:17.705Z,101565.75
2023-03-19T20:29:20.826Z,101573.53
2023-03-19T20:31:26.335Z,101580.28
2023-03-19T20:33:29.367Z,101576.28
2023-03-19T20:35:33.192Z,101575.22
2023-03-19T20:37:34.987Z,101571.22
2023-03-19T20:39:36.888Z,101577.34
2023-03-19T20:41:38.877Z,101565.97
2023-03-19T20:43:42.514Z,101574.59
2023-03-19T20:45:45.872Z,101583.25
2023-03-19T20:47:49.436Z,101577.53
2023-03-19T20:49:51.314Z,101587.03
2023-03-19T20:51:52.948Z,101585.75
2023-03-19T20:53:54.658Z,101588.94
2023-03-19T20:55:56.678Z,101599.25
2023-03-19T20:57:58.926Z,101602.38
2023-03-19T21:00:03.039Z,101594.59
2023-03-19T21:02:16.199Z,101601.97
2023-03-19T21:04:19.259Z,101599.03
2023-03-19T21:06:23.031Z,101594.59
2023-03-19T21:08:31.665Z,101600.25
2023-03-19T21:10:38.179Z,101608.91
2023-03-19T21:12:40.095Z,101609.31
2023-03-19T21:14:41.922Z,101608.91
2023-03-19T21:16:43.978Z,101620.25
2023-03-19T21:18:47.498Z,101619.81
2023-03-19T21:20:52.941Z,101618.75
2023-03-19T21:23:01.175Z,101616.66
2023-03-19T21:25:08.444Z,101617.28
2023-03-19T21:27:18.353Z,101612.41
2023-03-19T21:29:25.694Z,101602.09
2023-03-19T21:31:28.555Z,101585.06
2023-03-19T21:33:34.473Z,101594.72
2023-03-19T21:35:38.101Z,101582.53
2023-03-19T21:37:41.559Z,101592.81
2023-03-19T21:39:46.693Z,101598.69
2023-03-19T21:41:49.142Z,101592.59
2023-03-19T21:43:54.929Z,101590.91
2023-03-19T21:45:59.452Z,101588.38
2023-03-19T21:48:21.569Z,101583.97
2023-03-19T21:50:23.331Z,101577.81
2023-03-19T21:52:26.339Z,101565.22
2023-03-19T21:54:28.050Z,101563.94
2023-03-19T21:56:34.265Z,101558.66
2023-03-19T21:58:36.798Z,101566.25
2023-03-19T22:00:39.025Z,101576.09
2023-03-19T22:02:42.300Z,101568.13
2023-03-19T22:04:44.082Z,101569.16
2023-03-19T22:06:45.779Z,101566.44
2023-03-19T22:08:48.862Z,101562.25
2023-03-19T22:10:55.831Z,101566.84
2023-03-19T22:12:57.704Z,101560.97
2023-03-19T22:14:59.484Z,101556.75
2023-03-19T22:17:01.125Z,101559.88
2023-03-19T22:19:02.916Z,101561.97
2023-03-19T22:21:05.187Z,101557.78
2023-03-19T22:23:07.152Z,101557.13
2023-03-19T22:25:11.720Z,101561.97
2023-03-19T22:27:16.395Z,101563.00
2023-03-19T22:29:21.261Z,101561.31
2023-03-19T22:31:24.117Z,101561.31
2023-03-19T22:33:30.627Z,101558.78
2023-03-19T22:35:32.423Z,101563.41
2023-03-19T22:37:34.025Z,101560.88
2023-03-19T22:39:35.921Z,101559.22
2023-03-19T22:41:41.808Z,101555.81
2023-03-19T22:43:45.322Z,101557.91
2023-03-19T22:45:55.055Z,101557.25
2023-03-19T22:47:59.952Z,101567.56
2023-03-19T22:50:01.549Z,101561.66
2023-03-19T22:52:05.181Z,101565.44
2023-03-19T22:54:08.071Z,101567.72
2023-03-19T22:56:11.892Z,101570.88
2023-03-19T22:58:16.004Z,101568.53
2023-03-19T23:00:21.648Z,101574.38
2023-03-19T23:02:26.980Z,101579.41
2023-03-19T23:04:32.669Z,101578.97
2023-03-19T23:06:34.401Z,101576.00
2023-03-19T23:08:36.105Z,101573.88
2023-03-19T23:10:38.528Z,101569.00
2023-03-19T23:12:40.227Z,101570.44
2023-03-19T23:14:43.208Z,101571.03
2023-03-19T23:16:47.302Z,101572.50
2023-03-19T23:18:49.787Z,101571.22
2023-03-19T23:20:51.634Z,101574.31
2023-03-19T23:22:54.327Z,101572.84
2023-03-19T23:24:56.635Z,101564.22
2023-03-19T23:27:00.284Z,101574.69
2023-03-19T23:29:04.696Z,101561.44
2023-03-19T23:31:09.547Z,101566.44
2023-03-19T23:33:11.471Z,101559.47
2023-03-19T23:35:16.005Z,101553.41
2023-03-19T23:37:18.109Z,101556.53
2023-03-19T23:39:20.320Z,101555.03
2023-03-19T23:41:26.813Z,101559.00
2023-03-19T23:43:29.080Z,101553.31
2023-03-19T23:45:38.591Z,101557.22
2023-03-19T23:47:41.680Z,101557.81
2023-03-19T23:49:43.869Z,101553.59
2023-03-19T23:51:45.501Z,101556.72
2023-03-19T23:53:47.448Z,101554.56